Time;durP1;ratioP1;P1;durP2;ratioP2;P2;SDS_P1;SDS_P2;PMS_P1;PMS_P2;Temp;Humidity;BMP_temperature;BMP_pressure;BME280_temperature;BME280_humidity;BME280_pressure;Samples;Min_cycle;Max_cycle;Signal;HPM_P1;HPM_P2
2021/12/02 00:01:05;;;;;;;0.30;0.30;;;;;;;4.06;75.47;100058.81;5077563;28;20060;-69
2021/12/02 00:03:31;;;;;;;0.30;0.30;;;;;;;4.17;75.74;100064.44;5077227;28;20115;-68
2021/12/02 00:05:56;;;;;;;0.40;0.40;;;;;;;4.24;75.79;100072.53;5077488;28;20063;-67
2021/12/02 00:08:25;;;;;;;0.30;0.30;;;;;;;4.27;76.46;100071.78;5059516;28;20032;-66
2021/12/02 00:10:50;;;;;;;0.50;0.50;;;;;;;4.26;76.65;100080.38;5060082;28;20120;-68
2021/12/02 00:13:21;;;;;;;0.40;0.40;;;;;;;4.24;75.31;100077.72;5076636;28;20103;-70
2021/12/02 00:15:53;;;;;;;0.40;0.40;;;;;;;4.21;75.79;100074.09;5058500;28;20079;-67
2021/12/02 00:21:09;;;;;;;0.30;0.30;;;;;;;4.15;75.16;100082.50;5035173;28;20387;-69
2021/12/02 00:23:47;;;;;;;0.30;0.30;;;;;;;4.10;75.11;100082.31;5063224;28;20029;-65
2021/12/02 00:26:15;;;;;;;0.30;0.30;;;;;;;4.06;75.00;100079.53;5058700;28;20048;-66
2021/12/02 00:28:41;;;;;;;0.20;0.20;;;;;;;4.06;74.34;100082.13;5075860;28;20371;-69
2021/12/02 00:31:19;;;;;;;0.30;0.30;;;;;;;4.05;72.87;100077.78;5076653;28;20115;-70
2021/12/02 00:33:48;;;;;;;0.30;0.30;;;;;;;4.07;73.84;100076.13;5075822;28;20028;-68
2021/12/02 00:36:15;;;;;;;0.40;0.40;;;;;;;4.09;73.87;100070.19;5075635;28;20086;-68
2021/12/02 00:38:42;;;;;;;0.30;0.30;;;;;;;4.11;73.84;100073.72;5075450;28;20082;-68
2021/12/02 00:41:11;;;;;;;0.30;0.30;;;;;;;4.13;74.26;100074.66;5076264;28;20342;-70
2021/12/02 00:43:38;;;;;;;0.40;0.40;;;;;;;4.18;74.13;100084.34;5075125;28;20770;-68
2021/12/02 00:46:08;;;;;;;0.30;0.30;;;;;;;4.21;73.00;100077.59;5075793;28;20036;-67
2021/12/02 00:48:43;;;;;;;0.30;0.30;;;;;;;4.16;73.28;100070.47;5074813;28;20043;-68
2021/12/02 00:51:10;;;;;;;0.30;0.30;;;;;;;4.05;74.71;100064.81;5060170;28;20357;-68
2021/12/02 00:53:42;;;;;;;0.30;0.30;;;;;;;3.98;75.01;100064.53;5059547;28;20302;-68
2021/12/02 00:56:16;;;;;;;0.27;0.27;;;;;;;3.94;74.69;100072.13;5054653;28;20029;-67
2021/12/02 00:58:49;;;;;;;0.30;0.30;;;;;;;3.92;76.23;100076.38;5039979;28;20659;-68
2021/12/02 01:01:20;;;;;;;0.33;0.33;;;;;;;3.94;75.55;100092.84;5049735;28;20264;-67
2021/12/02 01:03:51;;;;;;;0.30;0.30;;;;;;;4.02;74.51;100098.34;5076295;28;20034;-67
2021/12/02 01:06:17;;;;;;;0.23;0.23;;;;;;;4.03;74.27;100094.97;5050677;28;20068;-66
2021/12/02 01:08:42;;;;;;;0.30;0.30;;;;;;;4.00;73.54;100087.94;5078102;28;20085;-66
2021/12/02 01:11:13;;;;;;;0.30;0.30;;;;;;;3.94;73.73;100087.66;5033804;28;20033;-64
2021/12/02 01:13:40;;;;;;;0.30;0.30;;;;;;;3.86;74.37;100087.31;5055675;28;20390;-67
2021/12/02 01:16:07;;;;;;;0.30;0.30;;;;;;;3.79;74.61;100085.31;5043131;28;20067;-67
2021/12/02 01:18:32;;;;;;;0.30;0.30;;;;;;;3.69;74.21;100090.06;5038860;28;20380;-67
2021/12/02 01:20:59;;;;;;;0.30;0.30;;;;;;;3.62;75.63;100084.56;5059089;28;20115;-66
2021/12/02 01:23:27;;;;;;;0.30;0.30;;;;;;;3.55;76.50;100092.03;5075035;28;20024;-67
2021/12/02 01:26:02;;;;;;;0.30;0.30;;;;;;;3.50;76.59;100084.91;5059772;28;20134;-68
2021/12/02 01:28:28;;;;;;;0.20;0.20;;;;;;;3.44;76.78;100090.69;5075807;28;20123;-68
2021/12/02 01:30:54;;;;;;;0.30;0.30;;;;;;;3.39;77.61;100087.00;5076236;28;20032;-68
2021/12/02 01:33:21;;;;;;;0.30;0.30;;;;;;;3.36;76.69;100089.47;5041920;28;20768;-68
2021/12/02 01:35:55;;;;;;;0.40;0.40;;;;;;;3.36;76.63;100085.16;5076383;28;20032;-66
2021/12/02 01:38:24;;;;;;;0.30;0.30;;;;;;;3.39;76.02;100092.16;5076059;28;20294;-68
2021/12/02 01:40:50;;;;;;;0.30;0.30;;;;;;;3.48;74.44;100092.59;5057806;28;20040;-67
2021/12/02 01:43:18;;;;;;;0.30;0.30;;;;;;;3.61;74.12;100090.56;5076301;28;20025;-69
2021/12/02 01:45:44;;;;;;;0.30;0.30;;;;;;;3.64;74.40;100094.16;5058455;28;20036;-69
2021/12/02 01:48:15;;;;;;;0.30;0.30;;;;;;;3.67;73.79;100091.72;5058707;28;20215;-69
2021/12/02 01:50:43;;;;;;;0.40;0.40;;;;;;;3.72;73.37;100097.09;5039021;28;20115;-70
2021/12/02 01:53:14;;;;;;;0.30;0.30;;;;;;;3.77;73.62;100094.69;5038121;28;20024;-69
2021/12/02 01:55:43;;;;;;;0.40;0.40;;;;;;;3.87;71.84;100090.81;5041325;28;20379;-69
2021/12/02 01:58:15;;;;;;;0.40;0.40;;;;;;;3.88;71.66;100087.41;5075007;28;20029;-68
2021/12/02 02:00:44;;;;;;;0.40;0.40;;;;;;;3.95;69.48;100090.34;5075760;28;20024;-69
2021/12/02 02:03:11;;;;;;;0.30;0.30;;;;;;;4.01;70.35;100092.31;5077764;28;20020;-68
2021/12/02 02:05:37;;;;;;;0.30;0.30;;;;;;;4.09;70.37;100103.88;5078465;28;20453;-69
2021/12/02 02:08:13;;;;;;;0.30;0.30;;;;;;;4.08;70.80;100109.88;5058587;28;20012;-67
2021/12/02 02:10:40;;;;;;;;;;;;;;;4.07;70.85;100113.28;5055806;28;20016;-69
2021/12/02 02:13:09;;;;;;;0.40;0.40;;;;;;;4.03;72.20;100115.69;5075557;28;19923;-64
2021/12/02 02:15:36;;;;;;;0.30;0.30;;;;;;;3.98;72.87;100123.22;5078830;28;20030;-67
2021/12/02 02:18:21;;;;;;;0.30;0.30;;;;;;;3.94;72.56;100109.25;5079752;28;20025;-69
2021/12/02 02:20:55;;;;;;;0.30;0.30;;;;;;;3.87;72.60;100116.72;5078902;28;20024;-68
2021/12/02 02:23:20;;;;;;;0.33;0.33;;;;;;;3.82;73.46;100111.34;5079273;28;20051;-69
2021/12/02 02:25:46;;;;;;;0.40;0.40;;;;;;;3.76;73.54;100111.06;5079327;28;20108;-70
2021/12/02 02:28:13;;;;;;;0.30;0.30;;;;;;;3.67;71.83;100112.41;5062016;28;20036;-67
2021/12/02 02:30:39;;;;;;;0.30;0.30;;;;;;;3.64;72.28;100113.97;5060978;28;20036;-69
2021/12/02 02:33:05;;;;;;;0.40;0.40;;;;;;;3.59;72.30;100107.72;5079219;28;20097;-69
2021/12/02 02:35:30;;;;;;;0.40;0.40;;;;;;;3.57;72.40;100112.84;5077955;28;20031;-69
2021/12/02 02:37:55;;;;;;;0.40;0.40;;;;;;;3.55;72.55;100104.13;5060960;28;20028;-69
2021/12/02 02:40:24;;;;;;;0.30;0.30;;;;;;;3.54;72.83;100108.41;5078144;28;20025;-70
2021/12/02 02:42:56;;;;;;;0.40;0.40;;;;;;;3.54;71.16;100104.91;5078531;28;20040;-68
2021/12/02 02:45:21;;;;;;;0.40;0.40;;;;;;;3.53;70.37;100111.81;5061410;28;20031;-70
2021/12/02 02:47:47;;;;;;;0.43;0.43;;;;;;;3.55;70.83;100111.88;5078757;28;20104;-70
2021/12/02 02:50:14;;;;;;;0.33;0.33;;;;;;;3.55;70.61;100115.34;5078066;28;20024;-70
2021/12/02 02:52:41;;;;;;;0.30;0.30;;;;;;;3.58;70.75;100122.38;5061395;28;20069;-70
2021/12/02 02:55:07;;;;;;;0.30;0.30;;;;;;;3.61;71.44;100126.81;5060123;28;20064;-67
2021/12/02 02:57:43;;;;;;;0.40;0.40;;;;;;;3.54;71.96;100117.84;5078572;28;20027;-69
2021/12/02 03:00:16;;;;;;;0.47;0.47;;;;;;;3.51;72.51;100122.91;5046414;28;20496;-72
2021/12/02 03:03:01;;;;;;;0.40;0.40;;;;;;;3.51;71.66;100128.97;5078738;28;20055;-68
2021/12/02 03:05:34;;;;;;;0.30;0.30;;;;;;;3.47;72.83;100131.38;5078609;28;20273;-69
2021/12/02 03:08:10;;;;;;;0.40;0.40;;;;;;;3.50;71.78;100137.56;5078952;28;20039;-70
2021/12/02 03:13:24;;;;;;;0.30;0.30;;;;;;;3.52;72.00;100133.34;5061115;28;20063;-68
2021/12/02 03:18:35;;;;;;;0.30;0.30;;;;;;;3.55;73.90;100155.91;5077967;28;20319;-64
2021/12/02 03:21:01;;;;;;;0.40;0.40;;;;;;;3.43;75.49;100153.63;5079106;28;20379;-65
2021/12/02 03:23:26;;;;;;;0.40;0.40;;;;;;;3.30;75.87;100145.28;5078912;28;20037;-64
2021/12/02 03:25:52;;;;;;;0.40;0.40;;;;;;;3.19;77.46;100137.84;5078819;28;20064;-65
2021/12/02 03:28:18;;;;;;;0.30;0.30;;;;;;;3.05;77.59;100124.25;5062073;28;20379;-65
2021/12/02 03:30:43;;;;;;;0.30;0.30;;;;;;;2.94;78.46;100108.22;5061315;28;20029;-65
2021/12/02 03:33:09;;;;;;;0.30;0.30;;;;;;;2.88;79.19;100120.03;5061738;28;20289;-65
2021/12/02 03:35:34;;;;;;;0.40;0.40;;;;;;;2.82;80.02;100131.78;5078946;28;20328;-64
2021/12/02 03:38:00;;;;;;;0.30;0.30;;;;;;;2.78;80.01;100137.63;5061643;28;20016;-66
2021/12/02 03:40:25;;;;;;;0.30;0.30;;;;;;;2.72;79.84;100135.63;5077301;28;20038;-65
2021/12/02 03:42:52;;;;;;;0.30;0.30;;;;;;;2.72;80.39;100126.19;5061600;28;20032;-65
2021/12/02 03:45:19;;;;;;;0.30;0.30;;;;;;;2.70;79.69;100103.66;5078951;28;20025;-64
2021/12/02 03:47:44;;;;;;;0.20;0.20;;;;;;;2.73;80.20;100114.13;5044236;28;20270;-66
2021/12/02 03:50:10;;;;;;;0.30;0.30;;;;;;;2.71;79.56;100131.28;5078513;28;20653;-66
2021/12/02 03:52:36;;;;;;;0.40;0.40;;;;;;;2.66;78.72;100117.25;5078866;28;20024;-66
2021/12/02 03:55:02;;;;;;;0.40;0.40;;;;;;;2.62;78.23;100129.13;5078094;28;20028;-66
2021/12/02 03:57:31;;;;;;;0.37;0.37;;;;;;;2.59;78.34;100129.88;5078367;28;20320;-64
2021/12/02 03:59:56;;;;;;;0.50;0.50;;;;;;;2.65;79.87;100126.69;5078202;28;20294;-64
2021/12/02 04:02:22;;;;;;;0.30;0.30;;;;;;;2.66;80.01;100132.75;5078557;28;20290;-63
2021/12/02 04:04:47;;;;;;;0.30;0.30;;;;;;;2.68;79.97;100129.41;5060609;28;20272;-64
2021/12/02 04:07:13;;;;;;;0.30;0.30;;;;;;;2.67;79.73;100125.06;5061171;28;20020;-63
2021/12/02 04:09:42;;;;;;;0.30;0.30;;;;;;;2.68;80.35;100129.41;5077549;28;20095;-64
2021/12/02 04:12:24;;;;;;;0.40;0.40;;;;;;;2.68;79.25;100134.59;5060407;28;20023;-65
2021/12/02 04:14:56;;;;;;;0.30;0.30;;;;;;;2.70;79.70;100152.78;5077875;28;20303;-66
2021/12/02 04:17:29;;;;;;;0.30;0.30;;;;;;;2.71;78.98;100150.28;5078357;28;20365;-64
2021/12/02 04:19:55;;;;;;;0.30;0.30;;;;;;;2.64;79.08;100150.78;5077970;28;20279;-64
2021/12/02 04:22:21;;;;;;;0.40;0.40;;;;;;;2.52;79.97;100161.41;5077185;28;20294;-66
2021/12/02 04:24:46;;;;;;;0.20;0.20;;;;;;;2.36;79.79;100157.13;5076333;28;20025;-66
2021/12/02 04:27:11;;;;;;;0.30;0.30;;;;;;;2.23;79.80;100141.84;5060465;28;20040;-64
2021/12/02 04:29:37;;;;;;;0.40;0.40;;;;;;;2.08;79.85;100137.66;5077876;28;20021;-65
2021/12/02 04:32:04;;;;;;;0.40;0.40;;;;;;;2.00;80.01;100136.38;5059854;28;20029;-66
2021/12/02 04:34:29;;;;;;;0.50;0.50;;;;;;;1.94;80.52;100129.22;5077549;28;20077;-66
2021/12/02 04:36:54;;;;;;;0.33;0.33;;;;;;;1.89;81.52;100138.41;5077399;28;20584;-66
2021/12/02 04:39:20;;;;;;;0.50;0.50;;;;;;;1.82;81.22;100129.47;5077481;28;20032;-64
2021/12/02 04:41:45;;;;;;;0.30;0.30;;;;;;;1.76;81.37;100123.97;5060202;28;20043;-66
2021/12/02 04:44:13;;;;;;;0.30;0.30;;;;;;;1.70;81.84;100127.13;5060018;28;20355;-65
2021/12/02 04:46:38;;;;;;;0.33;0.33;;;;;;;1.67;81.55;100133.81;5060151;28;20021;-66
2021/12/02 04:49:04;;;;;;;0.30;0.30;;;;;;;1.63;81.26;100135.34;5076457;28;20270;-65
2021/12/02 04:51:29;;;;;;;0.40;0.40;;;;;;;1.60;82.04;100130.91;5077169;28;20029;-66
2021/12/02 04:53:55;;;;;;;0.40;0.40;;;;;;;1.58;82.23;100142.84;5077292;28;20024;-66
2021/12/02 04:56:20;;;;;;;0.40;0.40;;;;;;;1.57;82.58;100140.16;5077467;28;20031;-66
2021/12/02 04:58:45;;;;;;;0.30;0.30;;;;;;;1.55;82.72;100137.50;5077010;28;20056;-64
2021/12/02 05:01:11;;;;;;;0.50;0.50;;;;;;;1.53;83.02;100136.53;5076991;28;20051;-65
2021/12/02 05:03:36;;;;;;;0.40;0.40;;;;;;;1.51;83.66;100133.84;5076852;28;20151;-65
2021/12/02 05:06:01;;;;;;;0.40;0.40;;;;;;;1.49;83.51;100138.06;5077315;28;20028;-66
2021/12/02 05:08:27;;;;;;;0.33;0.33;;;;;;;1.46;84.05;100137.00;5077029;28;20022;-64
2021/12/02 05:10:52;;;;;;;0.40;0.40;;;;;;;1.42;84.30;100140.25;5076487;28;20048;-64
2021/12/02 05:13:17;;;;;;;0.40;0.40;;;;;;;1.41;84.34;100144.50;5077316;28;20133;-64
2021/12/02 05:15:43;;;;;;;0.40;0.40;;;;;;;1.42;84.55;100143.69;5076875;28;20085;-64
2021/12/02 05:18:08;;;;;;;0.20;0.20;;;;;;;1.48;84.10;100137.97;5059438;28;20066;-64
2021/12/02 05:20:34;;;;;;;0.40;0.40;;;;;;;1.53;84.46;100141.69;5076733;28;20463;-64
2021/12/02 05:22:59;;;;;;;0.30;0.30;;;;;;;1.62;83.21;100138.72;5077183;28;20394;-65
2021/12/02 05:25:24;;;;;;;0.37;0.37;;;;;;;1.72;82.45;100140.97;5076177;28;20355;-65
2021/12/02 05:27:50;;;;;;;0.30;0.30;;;;;;;1.84;81.80;100148.50;5077254;28;20047;-65
2021/12/02 05:30:15;;;;;;;0.37;0.37;;;;;;;1.97;80.93;100142.25;5076770;28;20035;-64
2021/12/02 05:32:41;;;;;;;0.40;0.40;;;;;;;2.16;79.18;100143.19;5076433;28;20028;-64
2021/12/02 05:35:06;;;;;;;0.50;0.50;;;;;;;2.40;78.40;100140.09;5076874;28;20111;-67
2021/12/02 05:37:32;;;;;;;0.30;0.30;;;;;;;2.59;77.71;100140.22;5076628;28;20025;-65
2021/12/02 05:39:57;;;;;;;0.30;0.30;;;;;;;2.69;78.57;100140.66;5076446;28;20024;-64
2021/12/02 05:42:23;;;;;;;0.20;0.20;;;;;;;2.80;76.87;100138.59;5076228;28;20036;-64
2021/12/02 05:44:48;;;;;;;0.30;0.30;;;;;;;2.88;75.23;100147.63;5059230;28;20090;-66
2021/12/02 05:47:14;;;;;;;0.30;0.30;;;;;;;2.89;72.94;100146.81;5042596;28;20200;-66
2021/12/02 05:49:39;;;;;;;0.30;0.30;;;;;;;2.82;72.88;100145.63;5059258;28;20032;-65
2021/12/02 05:52:05;;;;;;;0.40;0.40;;;;;;;2.77;73.17;100143.59;5076726;28;20055;-65
2021/12/02 05:54:31;;;;;;;0.40;0.40;;;;;;;2.76;71.42;100160.84;5076486;28;20398;-64
2021/12/02 05:56:56;;;;;;;0.40;0.40;;;;;;;2.83;72.79;100170.66;5059002;28;20103;-63
2021/12/02 05:59:22;;;;;;;0.30;0.30;;;;;;;2.89;74.49;100165.78;5059322;28;20024;-65
2021/12/02 06:01:47;;;;;;;0.40;0.40;;;;;;;2.90;75.42;100182.19;5076022;28;20040;-63
2021/12/02 06:04:13;;;;;;;0.30;0.30;;;;;;;2.92;74.97;100177.97;5076563;28;20070;-63
2021/12/02 06:06:41;;;;;;;0.40;0.40;;;;;;;2.93;74.65;100191.81;5076600;28;20303;-65
2021/12/02 06:09:07;;;;;;;0.40;0.40;;;;;;;2.89;74.69;100190.78;5042386;28;20093;-67
2021/12/02 06:11:32;;;;;;;0.20;0.20;;;;;;;2.86;75.71;100190.63;5076075;28;20278;-68
2021/12/02 06:13:58;;;;;;;0.30;0.30;;;;;;;2.83;75.97;100205.97;5076538;28;20023;-66
2021/12/02 06:16:23;;;;;;;0.40;0.40;;;;;;;2.79;72.93;100224.75;5076335;28;20383;-66
2021/12/02 06:18:48;;;;;;;0.40;0.40;;;;;;;2.72;72.16;100221.84;5076003;28;20097;-65
2021/12/02 06:21:14;;;;;;;0.40;0.40;;;;;;;2.60;72.24;100218.63;5076177;28;20020;-66
2021/12/02 06:23:41;;;;;;;0.50;0.50;;;;;;;2.46;73.24;100205.91;5075958;28;20453;-67
2021/12/02 06:26:07;;;;;;;0.40;0.40;;;;;;;2.36;73.85;100202.78;5076543;28;20020;-65
2021/12/02 06:28:33;;;;;;;0.30;0.30;;;;;;;2.24;74.51;100200.44;5058741;28;20400;-66
2021/12/02 06:31:01;;;;;;;0.40;0.40;;;;;;;2.17;74.26;100194.97;5076434;28;20724;-66
2021/12/02 06:33:27;;;;;;;0.30;0.30;;;;;;;2.12;73.22;100193.81;5075308;28;20125;-66
2021/12/02 06:35:52;;;;;;;0.40;0.40;;;;;;;2.05;73.62;100192.63;5076359;28;20275;-67
2021/12/02 06:38:17;;;;;;;0.30;0.30;;;;;;;2.06;74.70;100180.63;5076334;28;20132;-67
2021/12/02 06:40:45;;;;;;;0.43;0.43;;;;;;;2.03;73.80;100191.66;5075660;28;20398;-68
2021/12/02 06:43:13;;;;;;;0.30;0.30;;;;;;;2.02;73.70;100184.72;5076391;28;20048;-68
2021/12/02 06:45:50;;;;;;;0.30;0.30;;;;;;;2.02;74.22;100178.66;5075799;28;20271;-68
2021/12/02 06:48:27;;;;;;;0.40;0.40;;;;;;;2.05;75.04;100189.13;5043184;28;20381;-68
2021/12/02 06:50:52;;;;;;;0.30;0.30;;;;;;;2.03;75.12;100191.66;5070026;28;20352;-68
2021/12/02 06:53:19;;;;;;;0.47;0.47;;;;;;;2.04;74.11;100202.88;5067099;28;20111;-68
2021/12/02 06:55:45;;;;;;;0.40;0.40;;;;;;;2.05;74.88;100199.47;5065819;28;20024;-67
2021/12/02 06:58:10;;;;;;;0.40;0.40;;;;;;;2.11;74.95;100207.53;5059079;28;20279;-68
2021/12/02 07:00:36;;;;;;;0.30;0.30;;;;;;;2.16;74.50;100208.69;5058675;28;20037;-67
2021/12/02 07:03:01;;;;;;;0.40;0.40;;;;;;;2.23;75.69;100219.34;5042252;28;20032;-68
2021/12/02 07:05:29;;;;;;;0.40;0.40;;;;;;;2.27;76.29;100219.59;5063490;28;20147;-69
2021/12/02 07:07:55;;;;;;;0.50;0.50;;;;;;;2.29;76.55;100217.97;5066712;28;20025;-67
2021/12/02 07:10:24;;;;;;;0.30;0.30;;;;;;;2.29;76.36;100224.81;5058815;28;20298;-68
2021/12/02 07:12:57;;;;;;;0.40;0.40;;;;;;;2.29;76.19;100240.31;5060514;28;20296;-68
2021/12/02 07:15:34;;;;;;;0.20;0.20;;;;;;;2.28;76.25;100228.22;5060928;28;20293;-67
2021/12/02 07:18:01;;;;;;;0.30;0.30;;;;;;;2.24;76.02;100227.16;5078552;28;20286;-68
2021/12/02 07:20:34;;;;;;;0.50;0.50;;;;;;;2.23;76.56;100227.09;5078971;28;20275;-68
2021/12/02 07:23:00;;;;;;;0.30;0.30;;;;;;;2.16;77.62;100233.63;5079076;28;20329;-69
2021/12/02 07:25:26;;;;;;;0.40;0.40;;;;;;;2.09;77.46;100226.34;5078269;28;20309;-68
2021/12/02 07:27:52;;;;;;;0.40;0.40;;;;;;;2.04;77.89;100232.19;5079287;28;20059;-68
2021/12/02 07:30:17;;;;;;;0.40;0.40;;;;;;;2.04;78.14;100244.19;5060863;28;20682;-66
2021/12/02 07:32:52;;;;;;;0.40;0.40;;;;;;;2.07;77.24;100249.53;5078685;28;20402;-67
2021/12/02 07:35:18;;;;;;;0.43;0.43;;;;;;;2.13;76.98;100261.88;5078880;28;20035;-63
2021/12/02 07:38:03;;;;;;;0.30;0.30;;;;;;;2.25;77.22;100259.94;5044572;28;20275;-67
2021/12/02 07:40:33;;;;;;;0.30;0.30;;;;;;;2.35;77.23;100268.19;5077942;28;20027;-66
2021/12/02 07:42:58;;;;;;;0.30;0.30;;;;;;;2.35;77.59;100273.38;5045232;28;20309;-66
2021/12/02 07:45:27;;;;;;;0.47;0.47;;;;;;;2.36;76.84;100262.22;5061361;28;20274;-64
2021/12/02 07:47:53;;;;;;;0.40;0.40;;;;;;;2.34;76.71;100269.88;5078414;28;20124;-65
2021/12/02 07:50:19;;;;;;;0.50;0.50;;;;;;;2.31;76.74;100277.47;5060822;28;20361;-65
2021/12/02 07:52:52;;;;;;;0.47;0.47;;;;;;;2.23;76.43;100274.47;5078312;28;20052;-66
2021/12/02 07:55:19;;;;;;;0.30;0.30;;;;;;;2.22;76.46;100277.00;5077985;28;20278;-66
2021/12/02 07:57:45;;;;;;;0.30;0.30;;;;;;;2.11;76.36;100264.38;5077320;28;21039;-67
2021/12/02 08:00:13;;;;;;;0.40;0.40;;;;;;;2.04;77.25;100270.03;5059433;28;20561;-67
2021/12/02 08:02:42;;;;;;;0.30;0.30;;;;;;;1.97;77.74;100280.81;5060975;28;20661;-66
2021/12/02 08:05:08;;;;;;;0.40;0.40;;;;;;;1.88;77.76;100284.69;5060765;28;20270;-67
2021/12/02 08:07:33;;;;;;;0.30;0.30;;;;;;;1.82;79.03;100294.69;5078149;28;20290;-66
2021/12/02 08:09:58;;;;;;;0.50;0.50;;;;;;;1.78;78.32;100308.22;5060354;28;20023;-66
2021/12/02 08:12:24;;;;;;;0.30;0.30;;;;;;;1.74;78.09;100308.88;5077792;28;20383;-66
2021/12/02 08:14:50;;;;;;;0.40;0.40;;;;;;;1.70;78.97;100315.56;5040738;28;20290;-66
2021/12/02 08:17:16;;;;;;;0.30;0.30;;;;;;;1.66;79.77;100312.72;5041007;28;20379;-67
2021/12/02 08:19:42;;;;;;;0.40;0.40;;;;;;;1.60;80.34;100314.16;5040192;28;20378;-66
2021/12/02 08:22:07;;;;;;;0.30;0.30;;;;;;;1.52;80.63;100310.25;5058223;28;20033;-66
2021/12/02 08:24:33;;;;;;;0.40;0.40;;;;;;;1.45;81.25;100316.78;5039357;28;20318;-66
2021/12/02 08:26:58;;;;;;;0.40;0.40;;;;;;;1.39;81.42;100325.84;5060513;28;20349;-67
2021/12/02 08:29:27;;;;;;;0.40;0.40;;;;;;;1.32;81.22;100340.94;5077765;28;20350;-67
2021/12/02 08:31:52;;;;;;;0.27;0.27;;;;;;;1.31;81.68;100340.88;5077739;28;20039;-67
2021/12/02 08:34:18;;;;;;;0.30;0.30;;;;;;;1.33;82.00;100344.44;5077816;28;20270;-68
2021/12/02 08:36:50;;;;;;;0.40;0.40;;;;;;;1.37;82.15;100360.19;5077622;28;20024;-67
2021/12/02 08:39:18;;;;;;;0.40;0.40;;;;;;;1.42;81.87;100365.59;5076822;28;20067;-67
2021/12/02 08:41:48;;;;;;;0.40;0.40;;;;;;;1.46;81.55;100369.25;5077510;28;20266;-66
2021/12/02 08:44:15;;;;;;;0.30;0.30;;;;;;;1.63;80.21;100372.81;5077232;28;20282;-67
2021/12/02 08:46:41;;;;;;;0.40;0.40;;;;;;;1.77;79.43;100371.00;5076963;28;20290;-66
2021/12/02 08:49:09;;;;;;;0.50;0.50;;;;;;;1.96;79.00;100366.84;5077026;28;20285;-66
2021/12/02 08:51:36;;;;;;;0.27;0.27;;;;;;;2.12;78.09;100374.66;5060015;28;20052;-65
2021/12/02 08:54:01;;;;;;;0.47;0.47;;;;;;;2.30;76.33;100379.06;5059886;28;20306;-67
2021/12/02 08:56:27;;;;;;;0.50;0.50;;;;;;;2.40;75.92;100380.44;5077156;28;20290;-66
2021/12/02 08:58:52;;;;;;;0.40;0.40;;;;;;;2.48;75.90;100373.97;5076929;28;20111;-67
2021/12/02 09:01:18;;;;;;;0.50;0.50;;;;;;;2.54;75.50;100374.31;5073774;28;20044;-67
2021/12/02 09:03:44;;;;;;;0.30;0.30;;;;;;;2.59;75.53;100375.47;5076987;28;20059;-66
2021/12/02 09:06:13;;;;;;;0.43;0.43;;;;;;;2.67;74.62;100381.03;5059500;28;20290;-67
2021/12/02 09:08:40;;;;;;;0.40;0.40;;;;;;;2.77;74.80;100384.09;5059159;28;20341;-67
2021/12/02 09:11:06;;;;;;;0.30;0.30;;;;;;;2.89;74.01;100382.16;5076724;28;20537;-67
2021/12/02 09:13:31;;;;;;;0.40;0.40;;;;;;;3.01;74.04;100385.38;5059096;28;20278;-67
2021/12/02 09:15:57;;;;;;;0.40;0.40;;;;;;;3.15;73.60;100386.09;5077174;28;20024;-67
2021/12/02 09:18:23;;;;;;;0.50;0.50;;;;;;;3.27;74.21;100383.25;5059552;28;20052;-68
2021/12/02 09:20:49;;;;;;;0.30;0.30;;;;;;;3.28;71.98;100384.13;5076709;28;20031;-68
2021/12/02 09:23:14;;;;;;;0.30;0.30;;;;;;;3.34;72.54;100378.34;5059604;28;20396;-68
2021/12/02 09:25:41;;;;;;;0.40;0.40;;;;;;;3.41;73.06;100390.78;5057560;28;20291;-67
2021/12/02 09:28:06;;;;;;;0.30;0.30;;;;;;;3.49;72.32;100386.88;5058286;28;20336;-68
2021/12/02 09:30:34;;;;;;;0.40;0.40;;;;;;;3.62;71.55;100393.56;5075505;28;20044;-67
2021/12/02 09:32:59;;;;;;;0.30;0.30;;;;;;;3.74;70.99;100398.44;5058977;28;20352;-67
2021/12/02 09:35:25;;;;;;;0.40;0.40;;;;;;;3.87;70.58;100402.56;5057308;28;20035;-68
2021/12/02 09:37:51;;;;;;;0.30;0.30;;;;;;;3.95;70.56;100403.81;5076755;28;20017;-68
2021/12/02 09:40:17;;;;;;;0.30;0.30;;;;;;;4.05;70.22;100414.63;5076605;28;20392;-67
2021/12/02 09:42:44;;;;;;;0.30;0.30;;;;;;;4.01;70.38;100411.00;5073340;28;20072;-68
2021/12/02 09:45:09;;;;;;;0.30;0.30;;;;;;;3.88;72.89;100403.44;5076727;28;20021;-67
2021/12/02 09:47:38;;;;;;;0.30;0.30;;;;;;;3.69;71.55;100415.50;5073480;28;20303;-67
2021/12/02 09:50:10;;;;;;;0.30;0.30;;;;;;;3.58;72.65;100412.38;5050318;28;20028;-67
2021/12/02 09:52:38;;;;;;;0.30;0.30;;;;;;;3.50;73.36;100426.63;5059205;28;20108;-67
2021/12/02 09:55:13;;;;;;;0.33;0.33;;;;;;;3.44;72.36;100422.03;5056943;28;20017;-66
2021/12/02 09:57:42;;;;;;;0.40;0.40;;;;;;;3.42;71.56;100415.88;5051318;28;20075;-67
2021/12/02 10:00:16;;;;;;;0.30;0.30;;;;;;;3.53;74.28;100416.41;5059338;28;20017;-66
2021/12/02 10:02:43;;;;;;;0.50;0.50;;;;;;;3.67;73.86;100428.34;5076199;28;20020;-67
2021/12/02 10:05:11;;;;;;;0.40;0.40;;;;;;;3.78;75.07;100436.66;5070621;28;20357;-68
2021/12/02 10:07:51;;;;;;;0.30;0.30;;;;;;;3.81;74.03;100441.09;5073070;28;20032;-67
2021/12/02 10:10:27;;;;;;;0.30;0.30;;;;;;;3.78;73.77;100436.66;5075250;28;20028;-67
2021/12/02 10:13:18;;;;;;;0.40;0.40;;;;;;;3.75;75.19;100433.94;5070708;28;20282;-69
2021/12/02 10:15:54;;;;;;;0.40;0.40;;;;;;;3.71;76.69;100445.84;5064539;28;20032;-67
2021/12/02 10:18:24;;;;;;;0.30;0.30;;;;;;;3.63;75.35;100498.03;5043819;28;20020;-67
2021/12/02 10:20:51;;;;;;;0.30;0.30;;;;;;;3.42;74.83;100502.19;5076168;28;20032;-67
2021/12/02 10:25:50;;;;;;;0.20;0.20;;;;;;;2.89;77.10;100488.22;5042932;28;20047;-65
2021/12/02 10:28:18;;;;;;;0.20;0.20;;;;;;;2.76;79.17;100489.25;5059611;28;20522;-65
2021/12/02 10:30:48;;;;;;;0.30;0.30;;;;;;;2.64;80.15;100486.88;5071989;28;20346;-65
2021/12/02 10:33:14;;;;;;;0.20;0.20;;;;;;;2.55;80.38;100517.41;5062588;28;20275;-66
2021/12/02 10:35:46;;;;;;;0.30;0.30;;;;;;;2.46;80.41;100526.41;5061629;28;20356;-66
2021/12/02 10:38:44;;;;;;;0.30;0.30;;;;;;;2.37;80.14;100543.97;5078325;28;20013;-69
2021/12/02 10:41:13;;;;;;;0.30;0.30;;;;;;;2.25;79.96;100575.16;5078148;28;20283;-67
2021/12/02 10:44:14;;;;;;;0.27;0.27;;;;;;;1.98;79.41;100585.69;5079431;28;20657;-67
2021/12/02 10:47:08;;;;;;;0.30;0.30;;;;;;;1.66;79.87;100563.13;5076353;28;20378;-68
2021/12/02 10:49:42;;;;;;;0.30;0.30;;;;;;;1.44;80.93;100572.16;5079128;28;20262;-66
2021/12/02 10:52:13;;;;;;;0.30;0.30;;;;;;;1.35;81.70;100585.38;5062289;28;20271;-67
2021/12/02 10:54:43;;;;;;;0.27;0.27;;;;;;;1.22;82.63;100583.72;5061960;28;20323;-67
2021/12/02 10:57:17;;;;;;;0.30;0.30;;;;;;;1.15;83.44;100577.28;5062524;28;20683;-69
2021/12/02 10:59:48;;;;;;;0.40;0.40;;;;;;;1.12;83.70;100574.50;5069856;28;20309;-67
2021/12/02 11:02:24;;;;;;;0.50;0.50;;;;;;;1.09;84.30;100570.06;5079613;28;20270;-67
2021/12/02 11:05:03;;;;;;;0.40;0.40;;;;;;;1.12;84.63;100548.72;5079317;28;20278;-68
2021/12/02 11:07:28;;;;;;;0.27;0.27;;;;;;;1.12;84.99;100542.69;5060528;28;20094;-68
2021/12/02 11:09:55;;;;;;;0.30;0.30;;;;;;;1.15;85.35;100555.75;5078913;28;20633;-68
2021/12/02 11:12:27;;;;;;;0.23;0.23;;;;;;;1.19;86.00;100555.16;5077203;28;20102;-68
2021/12/02 11:15:06;;;;;;;0.30;0.30;;;;;;;1.21;86.29;100551.88;5079278;28;20290;-67
2021/12/02 11:17:34;;;;;;;0.40;0.40;;;;;;;1.26;86.51;100559.91;5041670;28;20542;-67
2021/12/02 11:20:06;;;;;;;0.40;0.40;;;;;;;1.29;86.62;100564.34;5041643;28;20282;-68
2021/12/02 11:22:32;;;;;;;0.30;0.30;;;;;;;1.31;86.38;100545.59;5041993;28;20355;-68
2021/12/02 11:24:59;;;;;;;0.20;0.20;;;;;;;1.38;86.68;100531.38;5073016;28;20704;-68
2021/12/02 11:27:33;;;;;;;0.30;0.30;;;;;;;1.42;86.73;100543.66;5053493;28;20025;-68
2021/12/02 11:30:09;;;;;;;0.30;0.30;;;;;;;1.42;86.59;100546.25;5058607;28;20628;-68
2021/12/02 11:32:43;;;;;;;0.22;0.22;;;;;;;1.42;86.54;100543.66;5058866;28;20275;-67
2021/12/02 11:35:27;;;;;;;0.43;0.43;;;;;;;1.43;86.39;100548.00;5058686;28;20059;-69
2021/12/02 11:38:01;;;;;;;0.30;0.30;;;;;;;1.45;86.50;100542.97;5059033;28;20357;-68
2021/12/02 11:40:29;;;;;;;0.20;0.20;;;;;;;1.43;86.74;100542.84;5057900;28;20382;-68
2021/12/02 11:42:55;;;;;;;0.30;0.30;;;;;;;1.43;86.83;100547.16;5060848;28;20715;-68
2021/12/02 11:45:23;;;;;;;0.33;0.33;;;;;;;1.39;86.65;100551.22;5061327;28;20282;-67
2021/12/02 11:47:51;;;;;;;0.30;0.30;;;;;;;1.37;86.42;100552.81;5060785;28;20053;-66
2021/12/02 11:50:17;;;;;;;0.30;0.30;;;;;;;1.39;86.57;100548.66;5077429;28;20385;-68